createdAt,value
2022-08-25T00:05:21.465Z,44.04
2022-08-25T00:14:55.309Z,44.95
2022-08-25T00:24:28.012Z,45.62
2022-08-25T00:34:02.376Z,46.10
2022-08-25T00:43:36.169Z,46.65
2022-08-25T00:53:10.871Z,47.22
2022-08-25T01:02:45.185Z,47.83
2022-08-25T01:12:19.329Z,48.79
2022-08-25T01:21:55.129Z,49.73
2022-08-25T01:31:27.670Z,49.92
2022-08-25T01:41:03.596Z,50.37
2022-08-25T01:50:36.399Z,50.81
2022-08-25T02:00:10.523Z,51.21
2022-08-25T02:09:44.414Z,53.11
2022-08-25T02:19:18.117Z,53.94
2022-08-25T02:28:52.210Z,54.94
2022-08-25T02:38:25.189Z,56.61
2022-08-25T02:47:59.658Z,57.00
2022-08-25T02:57:33.304Z,58.46
2022-08-25T03:07:08.221Z,59.07
2022-08-25T03:16:46.402Z,58.40
2022-08-25T03:26:17.826Z,58.32
2022-08-25T03:35:52.718Z,58.46
2022-08-25T03:45:28.644Z,58.37
2022-08-25T03:55:01.226Z,56.81
2022-08-25T04:04:35.413Z,60.46
2022-08-25T04:14:10.056Z,60.38
2022-08-25T04:23:44.476Z,59.45
2022-08-25T04:33:19.161Z,59.39
2022-08-25T04:42:53.789Z,59.60
2022-08-25T04:52:28.071Z,60.13
2022-08-25T05:02:02.740Z,60.35
2022-08-25T05:11:38.571Z,60.82
2022-08-25T05:21:11.358Z,60.81
2022-08-25T05:30:47.507Z,60.93
2022-08-25T05:40:21.469Z,60.86
2022-08-25T05:49:54.443Z,60.83
2022-08-25T05:59:28.816Z,60.84
2022-08-25T06:09:05.288Z,61.20
2022-08-25T06:18:38.214Z,61.37
2022-08-25T06:28:13.342Z,61.66
2022-08-25T06:37:49.679Z,60.72
2022-08-25T06:47:24.388Z,59.36
2022-08-25T06:48:28.319Z,59.26
2022-08-25T06:58:00.456Z,59.10
2022-08-25T06:59:02.953Z,58.85
2022-08-25T07:00:05.475Z,58.80
2022-08-25T07:01:09.670Z,58.64
2022-08-25T07:02:10.543Z,58.42
2022-08-25T07:11:45.597Z,58.72
2022-08-25T07:12:48.017Z,58.65
2022-08-25T07:13:52.131Z,58.43
2022-08-25T07:15:03.954Z,58.42
2022-08-25T07:15:56.984Z,58.12
2022-08-25T07:16:59.535Z,57.91
2022-08-25T07:18:01.991Z,57.89
2022-08-25T07:19:06.077Z,57.95
2022-08-25T07:20:10.084Z,57.60
2022-08-25T07:29:42.157Z,57.82
2022-08-25T07:30:45.703Z,57.80
2022-08-25T07:31:48.158Z,57.56
2022-08-25T07:32:52.070Z,57.35
2022-08-25T07:33:53.157Z,57.17
2022-08-25T07:34:55.594Z,57.23
2022-08-25T07:35:59.733Z,57.12
2022-08-25T07:37:03.632Z,57.20
2022-08-25T07:38:09.028Z,57.06
2022-08-25T07:47:39.159Z,57.38
2022-08-25T07:48:41.692Z,57.40
2022-08-25T07:49:45.816Z,57.16
2022-08-25T07:50:48.154Z,56.86
2022-08-25T07:52:03.573Z,56.80
2022-08-25T07:52:55.123Z,56.95
2022-08-25T08:02:28.562Z,56.42
2022-08-25T08:03:45.019Z,56.32
2022-08-25T08:04:33.429Z,56.26
2022-08-25T08:05:37.494Z,56.35
2022-08-25T08:06:40.038Z,55.88
2022-08-25T08:07:43.645Z,55.68
2022-08-25T08:08:46.638Z,55.77
2022-08-25T08:09:55.939Z,55.71
2022-08-25T08:11:03.482Z,55.69
2022-08-25T08:11:55.457Z,55.67
2022-08-25T08:12:59.726Z,55.89
2022-08-25T08:14:02.018Z,55.07
2022-08-25T08:15:10.219Z,55.53
2022-08-25T08:16:08.591Z,55.48
2022-08-25T08:17:11.053Z,55.12
2022-08-25T08:18:13.552Z,55.19
2022-08-25T08:19:17.643Z,55.28
2022-08-25T08:20:23.171Z,54.35
2022-08-25T08:21:22.441Z,54.43
2022-08-25T08:22:24.996Z,54.12
2022-08-25T08:23:31.329Z,54.67
2022-08-25T08:33:09.505Z,55.37
2022-08-25T08:34:04.951Z,54.81
2022-08-25T08:35:07.287Z,53.86
2022-08-25T08:36:11.381Z,53.81
2022-08-25T08:37:13.717Z,53.51
2022-08-25T08:38:20.787Z,53.27
2022-08-25T08:39:18.776Z,53.03
2022-08-25T08:40:21.354Z,52.94
2022-08-25T08:41:25.414Z,52.54
2022-08-25T08:42:27.864Z,52.37
2022-08-25T08:43:33.284Z,52.27
2022-08-25T08:44:32.851Z,52.17
2022-08-25T08:45:40.311Z,52.81
2022-08-25T08:46:39.743Z,52.86
2022-08-25T08:47:41.800Z,51.73
2022-08-25T08:48:44.278Z,51.22
2022-08-25T08:49:46.801Z,51.22
2022-08-25T08:50:50.917Z,51.25
2022-08-25T08:51:53.301Z,51.05
2022-08-25T08:52:57.395Z,50.73
2022-08-25T08:53:59.805Z,50.56
2022-08-25T08:55:02.319Z,49.80
2022-08-25T08:56:06.379Z,49.52
2022-08-25T08:57:08.765Z,49.00
2022-08-25T08:58:11.303Z,49.19
2022-08-25T08:59:15.449Z,49.35
2022-08-25T09:00:19.470Z,49.51
2022-08-25T09:01:21.866Z,49.19
2022-08-25T09:02:30.755Z,49.18
2022-08-25T09:03:26.824Z,48.80
2022-08-25T09:04:29.285Z,48.89
2022-08-25T09:05:33.630Z,49.76
2022-08-25T09:06:35.924Z,49.53
2022-08-25T09:07:38.334Z,48.33
2022-08-25T09:08:44.531Z,48.65
2022-08-25T09:09:44.914Z,48.18
2022-08-25T09:10:47.274Z,48.06
2022-08-25T09:11:49.789Z,48.15
2022-08-25T09:12:52.315Z,47.49
2022-08-25T09:13:54.781Z,46.89
2022-08-25T09:14:57.292Z,47.87
2022-08-25T09:15:59.851Z,48.45
2022-08-25T09:17:02.309Z,47.99
2022-08-25T09:18:04.812Z,47.29
2022-08-25T09:19:07.285Z,47.44
2022-08-25T09:20:18.083Z,46.82
2022-08-25T09:21:13.842Z,47.07
2022-08-25T09:22:34.189Z,47.62
2022-08-25T09:23:20.314Z,47.12
2022-08-25T09:24:21.445Z,47.23
2022-08-25T09:25:34.659Z,47.06
2022-08-25T09:26:26.322Z,47.12
2022-08-25T09:27:28.829Z,47.21
2022-08-25T09:28:31.322Z,48.60
2022-08-25T09:29:33.782Z,47.64
2022-08-25T09:30:36.348Z,47.51
2022-08-25T09:31:40.414Z,47.97
2022-08-25T09:32:48.794Z,47.64
2022-08-25T09:33:46.817Z,47.80
2022-08-25T09:34:49.226Z,46.90
2022-08-25T09:35:53.621Z,46.02
2022-08-25T09:36:57.259Z,45.78
2022-08-25T09:38:01.335Z,45.81
2022-08-25T09:39:05.335Z,46.42
2022-08-25T09:40:07.708Z,45.50
2022-08-25T09:41:10.219Z,45.79
2022-08-25T09:42:12.716Z,46.09
2022-08-25T09:43:15.217Z,46.24
2022-08-25T09:44:19.353Z,47.29
2022-08-25T09:45:23.305Z,45.69
2022-08-25T09:46:26.879Z,45.63
2022-08-25T09:47:28.299Z,45.42
2022-08-25T09:48:30.799Z,44.94
2022-08-25T09:49:33.340Z,45.08
2022-08-25T09:50:35.850Z,45.34
2022-08-25T09:51:42.706Z,44.61
2022-08-25T09:52:41.203Z,44.76
2022-08-25T09:53:43.378Z,45.40
2022-08-25T09:54:46.842Z,45.09
2022-08-25T09:55:48.562Z,45.51
2022-08-25T09:56:51.005Z,45.14
2022-08-25T09:57:53.510Z,45.30
2022-08-25T09:58:58.187Z,46.03
2022-08-25T10:00:00.261Z,44.83
2022-08-25T10:01:02.773Z,44.98
2022-08-25T10:02:05.337Z,43.31
2022-08-25T10:03:09.474Z,43.08
2022-08-25T10:04:13.126Z,43.54
2022-08-25T10:05:14.273Z,43.70
2022-08-25T10:06:16.750Z,43.52
2022-08-25T10:07:20.889Z,44.44
2022-08-25T10:08:24.668Z,42.73
2022-08-25T10:09:26.355Z,43.40
2022-08-25T10:18:59.578Z,39.96
2022-08-25T10:20:02.124Z,40.17
2022-08-25T10:21:07.720Z,40.03
2022-08-25T10:22:08.710Z,39.93
2022-08-25T10:23:11.174Z,41.65
2022-08-25T10:24:15.332Z,41.11
2022-08-25T10:25:19.435Z,40.36
2022-08-25T10:26:21.746Z,39.78
2022-08-25T10:27:28.375Z,39.96
2022-08-25T10:28:30.068Z,40.01
2022-08-25T10:29:32.777Z,40.16
2022-08-25T10:30:36.668Z,40.02
2022-08-25T10:31:41.258Z,40.31
2022-08-25T10:32:41.571Z,39.38
2022-08-25T10:33:45.717Z,39.12
2022-08-25T10:34:51.516Z,38.84
2022-08-25T10:35:53.676Z,38.83
2022-08-25T10:36:56.204Z,38.69
2022-08-25T10:38:00.217Z,38.40
2022-08-25T10:39:04.203Z,39.18
2022-08-25T10:40:09.266Z,38.69
2022-08-25T10:41:11.546Z,38.42
2022-08-25T10:42:15.594Z,38.73
2022-08-25T10:43:19.091Z,37.79
2022-08-25T10:44:22.100Z,38.34
2022-08-25T10:45:24.424Z,38.10
2022-08-25T10:46:27.018Z,38.67
2022-08-25T10:47:29.498Z,38.38
2022-08-25T10:48:33.545Z,39.10
2022-08-25T10:49:36.000Z,38.73
2022-08-25T10:50:40.096Z,38.12
2022-08-25T10:51:43.991Z,38.33
2022-08-25T10:52:48.080Z,38.03
2022-08-25T10:53:52.124Z,38.34
2022-08-25T10:54:54.796Z,39.03
2022-08-25T10:55:58.607Z,39.69
2022-08-25T10:57:01.751Z,39.58
2022-08-25T11:06:35.410Z,40.99
2022-08-25T11:07:39.505Z,41.50
2022-08-25T11:08:43.548Z,40.60
2022-08-25T11:09:45.900Z,40.30
2022-08-25T11:10:50.386Z,39.19
2022-08-25T11:11:52.568Z,39.41
2022-08-25T11:12:55.067Z,39.22
2022-08-25T11:13:57.634Z,39.39
2022-08-25T11:15:01.787Z,39.85
2022-08-25T11:16:16.936Z,38.09
2022-08-25T11:17:08.377Z,37.28
2022-08-25T11:18:14.586Z,37.24
2022-08-25T11:19:13.280Z,36.89
2022-08-25T11:20:15.790Z,37.98
2022-08-25T11:21:18.356Z,38.51
2022-08-25T11:22:20.923Z,37.13
2022-08-25T11:23:25.024Z,37.34
2022-08-25T11:24:27.395Z,38.22
2022-08-25T11:25:29.915Z,37.54
2022-08-25T11:26:35.001Z,37.62
2022-08-25T11:27:34.984Z,37.42
2022-08-25T11:28:37.549Z,38.18
2022-08-25T11:29:41.633Z,38.07
2022-08-25T11:30:46.365Z,36.43
2022-08-25T11:31:53.200Z,36.90
2022-08-25T11:32:53.667Z,36.01
2022-08-25T11:33:56.064Z,36.30
2022-08-25T11:34:58.541Z,37.09
2022-08-25T11:36:01.087Z,37.53
2022-08-25T11:37:03.633Z,36.05
2022-08-25T11:38:08.760Z,36.42
2022-08-25T11:39:10.988Z,36.22
2022-08-25T11:40:13.623Z,37.11
2022-08-25T11:41:16.023Z,35.36
2022-08-25T11:42:18.520Z,34.93
2022-08-25T11:43:21.017Z,35.62
2022-08-25T11:44:25.218Z,35.18
2022-08-25T11:45:27.580Z,35.78
2022-08-25T11:46:30.154Z,36.25
2022-08-25T11:47:34.178Z,35.65
2022-08-25T11:48:38.114Z,35.06
2022-08-25T11:49:42.096Z,35.56
2022-08-25T11:50:44.433Z,34.80
2022-08-25T11:51:47.291Z,35.63
2022-08-25T11:52:49.787Z,36.61
2022-08-25T11:53:52.311Z,36.24
2022-08-25T11:54:54.822Z,36.38
2022-08-25T11:55:58.874Z,35.35
2022-08-25T11:57:01.324Z,35.78
2022-08-25T11:58:05.756Z,36.61
2022-08-25T11:59:07.923Z,36.14
2022-08-25T12:00:10.577Z,36.04
2022-08-25T12:01:13.033Z,36.91
2022-08-25T12:02:15.668Z,35.07
2022-08-25T12:03:18.110Z,35.37
2022-08-25T12:04:20.666Z,35.08
2022-08-25T12:05:23.230Z,34.30
2022-08-25T12:06:25.991Z,35.18
2022-08-25T12:07:28.818Z,34.16
2022-08-25T12:08:31.391Z,34.05
2022-08-25T12:09:34.155Z,34.01
2022-08-25T12:10:38.301Z,34.50
2022-08-25T12:11:41.678Z,34.48
2022-08-25T12:12:43.168Z,34.09
2022-08-25T12:13:47.279Z,33.17
2022-08-25T12:14:50.157Z,34.41
2022-08-25T12:15:54.285Z,33.29
2022-08-25T12:16:56.809Z,33.85
2022-08-25T12:17:59.512Z,33.18
2022-08-25T12:19:04.107Z,32.68
2022-08-25T12:20:06.959Z,32.32
2022-08-25T12:21:09.439Z,31.47
2022-08-25T12:22:13.918Z,31.77
2022-08-25T12:23:17.956Z,32.45
2022-08-25T12:24:20.346Z,32.27
2022-08-25T12:25:24.469Z,33.42
2022-08-25T12:26:26.901Z,33.92
2022-08-25T12:27:29.426Z,32.93
2022-08-25T12:28:34.944Z,32.93
2022-08-25T12:29:34.491Z,33.08
2022-08-25T12:30:38.619Z,32.83
2022-08-25T12:31:41.026Z,33.18
2022-08-25T12:32:43.656Z,33.31
2022-08-25T12:33:46.193Z,32.61
2022-08-25T12:34:49.741Z,32.87
2022-08-25T12:35:52.191Z,32.93
2022-08-25T12:36:56.441Z,32.95
2022-08-25T12:38:00.470Z,32.41
2022-08-25T12:39:04.381Z,31.96
2022-08-25T12:40:08.322Z,32.59
2022-08-25T12:41:12.300Z,32.75
2022-08-25T12:42:16.235Z,31.72
2022-08-25T12:43:19.638Z,32.93
2022-08-25T12:44:21.102Z,31.21
2022-08-25T12:45:23.659Z,31.66
2022-08-25T12:46:27.842Z,32.35
2022-08-25T12:47:30.272Z,34.26
2022-08-25T12:48:32.759Z,32.62
2022-08-25T12:49:35.272Z,33.30
2022-08-25T12:50:39.324Z,33.04
2022-08-25T12:51:48.655Z,32.44
2022-08-25T12:52:45.717Z,31.54
2022-08-25T12:53:48.304Z,31.91
2022-08-25T12:54:50.805Z,32.04
2022-08-25T12:55:54.959Z,32.93
2022-08-25T12:56:57.438Z,32.41
2022-08-25T12:57:59.925Z,32.48
2022-08-25T12:59:02.412Z,32.46
2022-08-25T13:00:05.458Z,31.99
2022-08-25T13:01:09.325Z,32.04
2022-08-25T13:02:13.191Z,32.21
2022-08-25T13:03:17.388Z,32.63
2022-08-25T13:04:19.495Z,31.85
2022-08-25T13:05:21.976Z,31.47
2022-08-25T13:06:26.058Z,33.28
2022-08-25T13:07:30.079Z,31.15
2022-08-25T13:08:34.169Z,31.05
2022-08-25T13:09:38.074Z,31.49
2022-08-25T13:10:42.349Z,31.33
2022-08-25T13:11:44.610Z,31.12
2022-08-25T13:12:47.015Z,29.98
2022-08-25T13:13:51.178Z,31.06
2022-08-25T13:14:55.097Z,29.67
2022-08-25T13:15:59.325Z,30.98
2022-08-25T13:17:02.509Z,30.80
2022-08-25T13:18:06.839Z,30.16
2022-08-25T13:19:09.031Z,30.45
2022-08-25T13:20:13.205Z,30.75
2022-08-25T13:21:15.525Z,30.21
2022-08-25T13:22:19.651Z,30.98
2022-08-25T13:23:22.057Z,29.91
2022-08-25T13:24:24.650Z,31.71
2022-08-25T13:25:27.806Z,31.55
2022-08-25T13:26:29.731Z,29.41
2022-08-25T13:27:32.222Z,29.85
2022-08-25T13:28:34.933Z,29.92
2022-08-25T13:29:40.689Z,29.87
2022-08-25T13:30:42.303Z,29.25
2022-08-25T13:31:44.914Z,29.66
2022-08-25T13:32:47.321Z,29.34
2022-08-25T13:33:49.790Z,31.82
2022-08-25T13:35:54.848Z,29.90
2022-08-25T13:36:58.766Z,29.60
2022-08-25T13:37:59.826Z,29.86
2022-08-25T13:39:03.919Z,30.56
2022-08-25T13:40:06.257Z,30.78
2022-08-25T13:41:09.559Z,32.86
2022-08-25T13:42:11.265Z,32.51
2022-08-25T13:43:15.409Z,30.86
2022-08-25T13:44:17.736Z,30.55
2022-08-25T13:45:20.290Z,30.63
2022-08-25T13:46:22.904Z,30.18
2022-08-25T13:47:26.964Z,31.10
2022-08-25T13:48:30.927Z,29.59
2022-08-25T13:49:33.390Z,30.40
2022-08-25T13:50:35.946Z,29.84
2022-08-25T13:51:38.435Z,29.79
2022-08-25T13:52:42.940Z,30.15
2022-08-25T13:53:46.578Z,30.30
2022-08-25T13:54:48.915Z,30.01
2022-08-25T13:55:52.141Z,30.14
2022-08-25T13:56:53.929Z,30.38
2022-08-25T13:57:56.765Z,30.40
2022-08-25T13:59:00.745Z,30.67
2022-08-25T14:00:03.106Z,29.62
2022-08-25T14:01:19.779Z,29.36
2022-08-25T14:02:08.779Z,29.83
2022-08-25T14:03:12.891Z,30.06
2022-08-25T14:04:13.620Z,31.89
2022-08-25T14:05:17.728Z,29.87
2022-08-25T14:06:23.618Z,29.07
2022-08-25T14:07:24.114Z,29.36
2022-08-25T14:08:28.335Z,29.29
2022-08-25T14:09:29.065Z,29.40
2022-08-25T14:10:31.606Z,29.54
2022-08-25T14:11:35.772Z,29.60
2022-08-25T14:12:38.072Z,30.54
2022-08-25T14:13:43.671Z,31.06
2022-08-25T14:14:44.912Z,30.50
2022-08-25T14:15:48.963Z,29.60
2022-08-25T14:16:51.602Z,29.78
2022-08-25T14:17:53.997Z,29.63
2022-08-25T14:18:58.573Z,31.09
2022-08-25T14:19:59.158Z,29.22
2022-08-25T14:21:01.946Z,30.18
2022-08-25T14:22:04.341Z,29.76
2022-08-25T14:23:09.274Z,28.22
2022-08-25T14:24:09.467Z,28.62
2022-08-25T14:25:11.986Z,29.09
2022-08-25T14:26:18.147Z,29.68
2022-08-25T14:27:22.101Z,30.88
2022-08-25T14:28:26.138Z,29.78
2022-08-25T14:29:30.003Z,28.71
2022-08-25T14:30:32.469Z,28.85
2022-08-25T14:31:35.043Z,28.56
2022-08-25T14:32:39.021Z,28.62
2022-08-25T14:33:43.007Z,28.37
2022-08-25T14:34:45.399Z,28.68
2022-08-25T14:35:47.888Z,29.03
2022-08-25T14:36:50.370Z,28.11
2022-08-25T14:37:54.600Z,28.33
2022-08-25T14:38:58.579Z,29.01
2022-08-25T14:40:01.174Z,30.08
2022-08-25T14:41:03.472Z,27.82
2022-08-25T14:42:05.945Z,28.64
2022-08-25T14:43:09.483Z,28.24
2022-08-25T14:44:12.624Z,29.91
2022-08-25T14:45:15.107Z,28.22
2022-08-25T14:46:17.646Z,28.86
2022-08-25T14:47:20.415Z,28.83
2022-08-25T14:48:22.913Z,27.98
2022-08-25T14:49:25.360Z,28.02
2022-08-25T14:50:28.064Z,27.98
2022-08-25T14:51:32.208Z,28.45
2022-08-25T14:52:36.174Z,28.26
2022-08-25T14:53:38.530Z,28.67
2022-08-25T14:54:42.630Z,29.28
2022-08-25T14:55:45.050Z,28.71
2022-08-25T14:56:47.690Z,28.19
2022-08-25T14:57:51.866Z,28.74
2022-08-25T14:58:54.467Z,28.60
2022-08-25T14:59:58.537Z,27.54
2022-08-25T15:01:02.538Z,28.33
2022-08-25T15:02:06.471Z,27.17
2022-08-25T15:03:09.272Z,27.33
2022-08-25T15:04:15.547Z,28.49
2022-08-25T15:05:15.922Z,28.21
2022-08-25T15:06:18.489Z,27.81
2022-08-25T15:07:21.018Z,26.60
2022-08-25T15:08:23.580Z,27.01
2022-08-25T15:09:26.058Z,26.92
2022-08-25T15:10:28.693Z,26.36
2022-08-25T15:11:32.866Z,26.55
2022-08-25T15:12:46.378Z,27.22
2022-08-25T15:13:37.843Z,26.35
2022-08-25T15:14:40.414Z,26.69
2022-08-25T15:15:52.248Z,26.62
2022-08-25T15:16:45.928Z,26.78
2022-08-25T15:17:49.407Z,26.59
2022-08-25T15:18:50.946Z,25.99
2022-08-25T15:19:53.493Z,26.81
2022-08-25T15:20:57.664Z,26.09
2022-08-25T15:22:01.695Z,26.04
2022-08-25T15:23:04.040Z,26.22
2022-08-25T15:24:07.028Z,26.50
2022-08-25T15:25:10.704Z,26.84
2022-08-25T15:26:14.710Z,27.17
2022-08-25T15:27:17.099Z,26.91
2022-08-25T15:28:21.834Z,26.05
2022-08-25T15:29:22.286Z,26.29
2022-08-25T15:30:28.536Z,26.47
2022-08-25T15:31:29.006Z,26.16
2022-08-25T15:32:31.313Z,26.10
2022-08-25T15:33:35.425Z,25.92
2022-08-25T15:34:37.802Z,26.09
2022-08-25T15:35:40.361Z,25.94
2022-08-25T15:36:45.536Z,26.13
2022-08-25T15:37:47.989Z,25.63
2022-08-25T15:38:50.490Z,26.00
2022-08-25T15:39:53.164Z,27.18
2022-08-25T15:40:55.621Z,25.49
2022-08-25T15:50:28.142Z,27.27
2022-08-25T15:51:32.312Z,26.50
2022-08-25T15:52:45.942Z,26.79
2022-08-25T15:53:38.734Z,26.03
2022-08-25T15:54:41.508Z,25.29
2022-08-25T15:55:44.020Z,25.40
2022-08-25T15:56:46.579Z,25.40
2022-08-25T15:57:50.643Z,26.53
2022-08-25T15:58:54.700Z,25.77
2022-08-25T15:59:57.083Z,25.43
2022-08-25T16:00:59.587Z,25.50
2022-08-25T16:02:02.218Z,25.90
2022-08-25T16:03:05.082Z,26.07
2022-08-25T16:04:08.975Z,25.41
2022-08-25T16:05:11.401Z,25.18
2022-08-25T16:06:15.514Z,25.83
2022-08-25T16:07:17.919Z,25.20
2022-08-25T16:08:22.012Z,24.81
2022-08-25T16:09:24.461Z,24.60
2022-08-25T16:10:28.642Z,25.08
2022-08-25T16:11:31.057Z,25.34
2022-08-25T16:12:33.622Z,25.03
2022-08-25T16:13:36.080Z,24.96
2022-08-25T16:14:40.187Z,25.55
2022-08-25T16:15:44.181Z,24.92
2022-08-25T16:16:46.640Z,25.35
2022-08-25T16:17:51.158Z,25.17
2022-08-25T16:18:53.228Z,25.00
2022-08-25T16:19:55.626Z,25.21
2022-08-25T16:20:59.853Z,25.45
2022-08-25T16:22:02.237Z,25.03
2022-08-25T16:23:04.756Z,25.69
2022-08-25T16:24:07.767Z,25.97
2022-08-25T16:25:09.766Z,26.98
2022-08-25T16:26:14.041Z,25.98
2022-08-25T16:27:18.007Z,26.21
2022-08-25T16:28:20.525Z,25.06
2022-08-25T16:29:24.659Z,25.48
2022-08-25T16:30:27.081Z,26.05
2022-08-25T16:31:31.143Z,26.10
2022-08-25T16:32:33.471Z,26.51
2022-08-25T16:33:37.695Z,26.25
2022-08-25T16:34:41.604Z,25.39
2022-08-25T16:35:45.619Z,25.95
2022-08-25T16:36:51.545Z,25.65
2022-08-25T16:37:53.536Z,25.94
2022-08-25T16:38:55.958Z,26.25
2022-08-25T16:39:58.560Z,26.12
2022-08-25T16:41:01.341Z,26.04
2022-08-25T16:42:03.661Z,26.07
2022-08-25T16:43:06.200Z,26.52
2022-08-25T16:44:11.063Z,26.32
2022-08-25T16:45:12.773Z,25.44
2022-08-25T16:46:15.421Z,25.80
2022-08-25T16:47:20.377Z,26.37
2022-08-25T16:48:20.380Z,26.26
2022-08-25T16:49:24.292Z,25.67
2022-08-25T16:50:25.447Z,26.25
2022-08-25T16:51:32.454Z,26.90
2022-08-25T16:52:31.947Z,26.35
2022-08-25T16:53:34.464Z,26.36
2022-08-25T16:54:37.016Z,25.85
2022-08-25T16:55:39.978Z,25.87
2022-08-25T16:56:42.095Z,26.13
2022-08-25T16:57:44.651Z,26.19
2022-08-25T16:58:47.121Z,26.27
2022-08-25T16:59:51.288Z,26.08
2022-08-25T17:00:53.647Z,26.85
2022-08-25T17:01:56.219Z,26.66
2022-08-25T17:03:00.310Z,26.65
2022-08-25T17:04:02.626Z,26.69
2022-08-25T17:05:05.139Z,26.68
2022-08-25T17:06:07.647Z,27.50
2022-08-25T17:07:10.216Z,26.67
2022-08-25T17:08:12.770Z,27.07
2022-08-25T17:09:17.382Z,27.03
2022-08-25T17:10:17.906Z,27.12
2022-08-25T17:11:20.359Z,27.00
2022-08-25T17:12:23.011Z,26.76
2022-08-25T17:13:25.446Z,26.85
2022-08-25T17:14:29.569Z,27.55
2022-08-25T17:15:31.983Z,26.43
2022-08-25T17:16:35.721Z,26.63
2022-08-25T17:17:37.161Z,27.26
2022-08-25T17:18:41.135Z,26.37
2022-08-25T17:19:45.903Z,27.11
2022-08-25T17:20:47.622Z,26.38
2022-08-25T17:21:50.134Z,26.90
2022-08-25T17:22:54.217Z,27.61
2022-08-25T17:23:56.616Z,26.83
2022-08-25T17:25:01.358Z,27.34
2022-08-25T17:26:05.033Z,27.63
2022-08-25T17:27:08.920Z,27.20
2022-08-25T17:28:11.905Z,27.83
2022-08-25T17:29:13.790Z,27.33
2022-08-25T17:30:16.371Z,28.35
2022-08-25T17:31:20.160Z,28.86
2022-08-25T17:32:22.737Z,28.43
2022-08-25T17:33:25.324Z,28.00
2022-08-25T17:34:27.933Z,28.71
2022-08-25T17:35:32.095Z,29.18
2022-08-25T17:36:36.244Z,27.78
2022-08-25T17:37:38.732Z,28.37
2022-08-25T17:38:41.276Z,28.08
2022-08-25T17:48:11.380Z,33.77
2022-08-25T17:49:13.876Z,33.80
2022-08-25T17:50:16.378Z,32.48
2022-08-25T17:51:19.037Z,33.26
2022-08-25T17:52:25.549Z,33.45
2022-08-25T17:53:25.630Z,33.03
2022-08-25T17:54:28.068Z,33.73
2022-08-25T17:55:30.617Z,33.80
2022-08-25T17:56:33.133Z,34.54
2022-08-25T17:57:36.190Z,34.67
2022-08-25T17:58:38.866Z,33.03
2022-08-25T17:59:41.414Z,34.32
2022-08-25T18:00:45.498Z,34.58
2022-08-25T18:01:49.597Z,33.95
2022-08-25T18:02:51.876Z,33.54
2022-08-25T18:03:54.399Z,34.10
2022-08-25T18:04:58.537Z,34.17
2022-08-25T18:06:02.477Z,35.14
2022-08-25T18:07:04.990Z,35.16
2022-08-25T18:08:10.425Z,34.50
2022-08-25T18:09:11.522Z,34.40
2022-08-25T18:10:14.015Z,35.44
2022-08-25T18:11:19.422Z,35.91
2022-08-25T18:12:23.645Z,36.27
2022-08-25T18:13:27.602Z,36.01
2022-08-25T18:14:29.954Z,35.53
2022-08-25T18:24:01.640Z,37.72
2022-08-25T18:25:05.773Z,37.67
2022-08-25T18:26:08.221Z,37.60
2022-08-25T18:27:10.847Z,37.74
2022-08-25T18:28:15.040Z,38.09
2022-08-25T18:29:17.431Z,37.97
2022-08-25T18:38:51.242Z,39.10
2022-08-25T18:48:26.503Z,39.09
2022-08-25T18:57:57.194Z,40.36
2022-08-25T18:58:59.753Z,40.08
2022-08-25T19:08:33.092Z,40.70
2022-08-25T19:09:35.652Z,40.91
2022-08-25T19:19:10.867Z,41.00
2022-08-25T19:28:50.391Z,42.00
2022-08-25T19:38:24.489Z,42.00
2022-08-25T19:47:52.547Z,42.05
2022-08-25T19:57:28.046Z,41.87
2022-08-25T20:07:02.158Z,42.07
2022-08-25T20:16:36.141Z,41.89
2022-08-25T20:26:10.558Z,41.85
2022-08-25T20:35:45.535Z,41.83
2022-08-25T20:45:21.537Z,42.23
2022-08-25T20:54:54.107Z,43.05
2022-08-25T21:04:29.719Z,44.01
2022-08-25T21:14:05.914Z,44.53
2022-08-25T21:23:36.632Z,45.70
2022-08-25T21:33:10.689Z,47.56
2022-08-25T21:42:44.037Z,48.41
2022-08-25T21:52:18.043Z,49.33
2022-08-25T22:01:50.807Z,48.53
2022-08-25T22:02:55.010Z,48.47
2022-08-25T22:12:27.607Z,48.11
2022-08-25T22:22:02.393Z,47.10
2022-08-25T22:31:38.966Z,46.81
2022-08-25T22:41:11.834Z,46.96
2022-08-25T22:50:46.968Z,49.28
2022-08-25T23:00:17.441Z,51.10
2022-08-25T23:09:51.054Z,52.48
2022-08-25T23:19:28.062Z,54.33
2022-08-25T23:29:00.333Z,54.59
2022-08-25T23:38:34.460Z,55.46
2022-08-25T23:48:06.224Z,55.35
2022-08-25T23:57:39.949Z,55.97
